Time;durP1;ratioP1;P1;durP2;ratioP2;P2;SDS_P1;SDS_P2;PMS_P1;PMS_P2;Temp;Humidity;BMP_temperature;BMP_pressure;BME280_temperature;BME280_humidity;BME280_pressure;Samples;Min_cycle;Max_cycle;Signal;HPM_P1;HPM_P2
2023/01/31 00:00:13;;;;;;;;;;;;;;;;;;5034157;28;20381;-75
2023/01/31 00:02:39;;;;;;;;;;;;;;;;;;5034252;28;19953;-75
2023/01/31 00:05:05;;;;;;;;;;;;;;;;;;5034040;28;19917;-74
2023/01/31 00:07:31;;;;;;;;;;;;;;;;;;5034129;28;19944;-75
2023/01/31 00:09:57;;;;;;;;;;;;;;;;;;5033996;28;19915;-76
2023/01/31 00:12:23;;;;;;;;;;;;;;;;;;5033933;28;20023;-74
2023/01/31 00:14:48;;;;;;;;;;;;;;;;;;5033794;28;19925;-75
2023/01/31 00:17:14;;;;;;;;;;;;;;;;;;5033516;28;20327;-75
2023/01/31 00:19:40;;;;;;;;;;;;;;;;;;5033987;28;20388;-75
2023/01/31 00:22:06;;;;;;;;;;;;;;;;;;5033872;28;19909;-76
2023/01/31 00:24:32;;;;;;;;;;;;;;;;;;5032488;28;19910;-75
2023/01/31 00:26:58;;;;;;;;;;;;;;;;;;5032487;28;19916;-75
2023/01/31 00:29:24;;;;;;;;;;;;;;;;;;5033727;28;19916;-74
2023/01/31 00:31:50;;;;;;;;;;;;;;;;;;5033783;28;19909;-75
2023/01/31 00:34:16;;;;;;;;;;;;;;;;;;5033739;28;19909;-74
2023/01/31 00:36:42;;;;;;;;;;;;;;;;;;5034023;28;19935;-75
2023/01/31 00:39:08;;;;;;;;;;;;;;;;;;5033818;28;19909;-75
2023/01/31 00:41:34;;;;;;;;;;;;;;;;;;5032375;28;19909;-75
2023/01/31 00:44:00;;;;;;;;;;;;;;;;;;5033646;28;19916;-74
2023/01/31 00:46:26;;;;;;;;;;;;;;;;;;5033598;28;19913;-75
2023/01/31 00:48:51;;;;;;;;;;;;;;;;;;5032313;28;19959;-75
2023/01/31 00:51:17;;;;;;;;;;;;;;;;;;5033856;28;19956;-74
2023/01/31 00:53:43;;;;;;;;;;;;;;;;;;5033531;28;19955;-75
2023/01/31 00:56:09;;;;;;;;;;;;;;;;;;5033495;28;19916;-75
2023/01/31 00:58:35;;;;;;;;;;;;;;;;;;5032101;28;19913;-74
2023/01/31 01:01:01;;;;;;;;;;;;;;;;;;5033643;28;19909;-75
2023/01/31 01:03:27;;;;;;;;;;;;;;;;;;5033574;28;19974;-75
2023/01/31 01:05:53;;;;;;;;;;;;;;;;;;5033408;28;20360;-76
2023/01/31 01:08:19;;;;;;;;;;;;;;;;;;5033388;28;19913;-74
2023/01/31 01:10:45;;;;;;;;;;;;;;;;;;5033356;28;19916;-74
2023/01/31 01:13:11;;;;;;;;;;;;;;;;;;5033350;28;19909;-74
2023/01/31 01:15:37;;;;;;;;;;;;;;;;;;5033172;28;19928;-75
2023/01/31 01:18:03;;;;;;;;;;;;;;;;;;5033232;28;19913;-75
2023/01/31 01:20:28;;;;;;;;;;;;;;;;;;5033251;28;19916;-75
2023/01/31 01:22:54;;;;;;;;;;;;;;;;;;5033397;28;19952;-75
2023/01/31 01:25:20;;;;;;;;;;;;;;;;;;5033244;28;20309;-75
2023/01/31 01:27:46;;;;;;;;;;;;;;;;;;5033826;28;20427;-75
2023/01/31 01:30:12;;;;;;;;;;;;;;;;;;5037338;28;19955;-75
2023/01/31 01:32:38;;;;;;;;;;;;;;;;;;5037201;28;19916;-75
2023/01/31 01:35:05;;;;;;;;;;;;;;;;;;5036917;28;20281;-75
2023/01/31 01:37:31;;;;;;;;;;;;;;;;;;5036776;28;19913;-74
2023/01/31 01:39:56;;;;;;;;;;;;;;;;;;5036787;28;20412;-75
2023/01/31 01:42:22;;;;;;;;;;;;;;;;;;5037051;28;19909;-75
2023/01/31 01:44:48;;;;;;;;;;;;;;;;;;5036898;28;19909;-74
2023/01/31 01:47:14;;;;;;;;;;;;;;;;;;5036620;28;19909;-75
2023/01/31 01:49:40;;;;;;;;;;;;;;;;;;5036572;28;19909;-75
2023/01/31 01:52:06;;;;;;;;;;;;;;;;;;5036505;28;19909;-74
2023/01/31 01:54:32;;;;;;;;;;;;;;;;;;5036478;28;19915;-74
2023/01/31 01:56:58;;;;;;;;;;;;;;;;;;5036380;28;19913;-75
2023/01/31 01:59:24;;;;;;;;;;;;;;;;;;5036432;28;19979;-74
2023/01/31 02:01:50;;;;;;;;;;;;;;;;;;5034600;28;20293;-74
2023/01/31 02:04:16;;;;;;;;;;;;;;;;;;5036360;28;19913;-74
2023/01/31 02:06:41;;;;;;;;;;;;;;;;;;5036306;28;19955;-74
2023/01/31 02:09:07;;;;;;;;;;;;;;;;;;5036360;28;20380;-74
2023/01/31 02:11:33;;;;;;;;;;;;;;;;;;5036181;28;20385;-74
2023/01/31 02:13:59;;;;;;;;;;;;;;;;;;5035964;28;19943;-76
2023/01/31 02:16:25;;;;;;;;;;;;;;;;;;5036104;28;20000;-75
2023/01/31 02:18:51;;;;;;;;;;;;;;;;;;5036222;28;19920;-76
2023/01/31 02:21:17;;;;;;;;;;;;;;;;;;5036001;28;19909;-75
2023/01/31 02:23:43;;;;;;;;;;;;;;;;;;5035981;28;20061;-75
2023/01/31 02:26:09;;;;;;;;;;;;;;;;;;5035889;28;20007;-75
2023/01/31 02:28:35;;;;;;;;;;;;;;;;;;5036065;28;19987;-75
2023/01/31 02:31:01;;;;;;;;;;;;;;;;;;5035847;28;19909;-75
2023/01/31 02:33:27;;;;;;;;;;;;;;;;;;5035882;28;19936;-75
2023/01/31 02:35:53;;;;;;;;;;;;;;;;;;5034487;28;19917;-74
2023/01/31 02:38:19;;;;;;;;;;;;;;;;;;5035524;28;20265;-75
2023/01/31 02:40:44;;;;;;;;;;;;;;;;;;5035916;28;19916;-74
2023/01/31 02:43:11;;;;;;;;;;;;;;;;;;5035643;28;19936;-75
2023/01/31 02:45:37;;;;;;;;;;;;;;;;;;5035598;28;19944;-75
2023/01/31 02:48:03;;;;;;;;;;;;;;;;;;5035565;28;19948;-75
2023/01/31 02:50:29;;;;;;;;;;;;;;;;;;5035469;28;20370;-75
2023/01/31 02:52:55;;;;;;;;;;;;;;;;;;5035413;28;19944;-75
2023/01/31 02:58:06;;;;;;;;;;;;;;;;;;5034983;28;19966;-76
2023/01/31 03:00:32;;;;;;;;;;;;;;;;;;5035283;28;19995;-74
2023/01/31 03:02:58;;;;;;;;;;;;;;;;;;5035246;28;19917;-74
2023/01/31 03:05:24;;;;;;;;;;;;;;;;;;5035396;28;20377;-74
2023/01/31 03:07:50;;;;;;;;;;;;;;;;;;5035286;28;20362;-74
2023/01/31 03:10:16;;;;;;;;;;;;;;;;;;5035026;28;19916;-74
2023/01/31 03:12:42;;;;;;;;;;;;;;;;;;5033763;28;20392;-75
2023/01/31 03:15:09;;;;;;;;;;;;;;;;;;5034726;28;20270;-75
2023/01/31 03:17:34;;;;;;;;;;;;;;;;;;5034891;28;20299;-73
2023/01/31 03:20:00;;;;;;;;;;;;;;;;;;5034903;28;19909;-75
2023/01/31 03:22:26;;;;;;;;;;;;;;;;;;5035294;28;19963;-74
2023/01/31 03:24:52;;;;;;;;;;;;;;;;;;5033514;28;20385;-75
2023/01/31 03:27:19;;;;;;;;;;;;;;;;;;5035299;28;19959;-74
2023/01/31 03:29:45;;;;;;;;;;;;;;;;;;5034662;28;19916;-75
2023/01/31 03:32:11;;;;;;;;;;;;;;;;;;5034651;28;19909;-75
2023/01/31 03:34:37;;;;;;;;;;;;;;;;;;5034589;28;19909;-74
2023/01/31 03:37:03;;;;;;;;;;;;;;;;;;5034485;28;19960;-74
2023/01/31 03:39:29;;;;;;;;;;;;;;;;;;5034515;28;19913;-74
2023/01/31 03:41:55;;;;;;;;;;;;;;;;;;5034600;28;19909;-75
2023/01/31 03:44:21;;;;;;;;;;;;;;;;;;5034443;28;20308;-75
2023/01/31 03:46:47;;;;;;;;;;;;;;;;;;5033122;28;20020;-74
2023/01/31 03:49:13;;;;;;;;;;;;;;;;;;5034368;28;19910;-75
2023/01/31 03:51:38;;;;;;;;;;;;;;;;;;5032448;28;19917;-74
2023/01/31 03:54:04;;;;;;;;;;;;;;;;;;5034241;28;19916;-75
2023/01/31 03:56:30;;;;;;;;;;;;;;;;;;5034261;28;19909;-75
2023/01/31 03:58:56;;;;;;;;;;;;;;;;;;5034088;28;19914;-76
2023/01/31 04:01:22;;;;;;;;;;;;;;;;;;5034146;28;19909;-76
2023/01/31 04:03:48;;;;;;;;;;;;;;;;;;5034152;28;19932;-75
2023/01/31 04:06:14;;;;;;;;;;;;;;;;;;5034057;28;19956;-74
2023/01/31 04:08:40;;;;;;;;;;;;;;;;;;5034242;28;19909;-75
2023/01/31 04:11:06;;;;;;;;;;;;;;;;;;5034242;28;20427;-74
2023/01/31 04:13:32;;;;;;;;;;;;;;;;;;5033930;28;19952;-74
2023/01/31 04:15:58;;;;;;;;;;;;;;;;;;5033942;28;19909;-74
2023/01/31 04:18:24;;;;;;;;;;;;;;;;;;5034217;28;19914;-74
2023/01/31 04:20:50;;;;;;;;;;;;;;;;;;5033870;28;19916;-75
2023/01/31 04:23:17;;;;;;;;;;;;;;;;;;5033838;28;19973;-75
2023/01/31 04:25:43;;;;;;;;;;;;;;;;;;5033859;28;19963;-75
2023/01/31 04:28:09;;;;;;;;;;;;;;;;;;5033794;28;20320;-75
2023/01/31 04:30:35;;;;;;;;;;;;;;;;;;5032542;28;20426;-74
2023/01/31 04:33:01;;;;;;;;;;;;;;;;;;5034000;28;20007;-74
2023/01/31 04:35:27;;;;;;;;;;;;;;;;;;5032411;28;19960;-75
2023/01/31 04:37:53;;;;;;;;;;;;;;;;;;5033575;28;19921;-75
2023/01/31 04:40:19;;;;;;;;;;;;;;;;;;5033637;28;19909;-74
2023/01/31 04:42:45;;;;;;;;;;;;;;;;;;5033809;28;19909;-74
2023/01/31 04:45:11;;;;;;;;;;;;;;;;;;5033596;28;19915;-74
2023/01/31 04:47:37;;;;;;;;;;;;;;;;;;5033623;28;19996;-75
2023/01/31 04:50:02;;;;;;;;;;;;;;;;;;5032295;28;19980;-75
2023/01/31 04:52:28;;;;;;;;;;;;;;;;;;5033540;28;19910;-75
2023/01/31 04:54:54;;;;;;;;;;;;;;;;;;5033615;28;19916;-75
2023/01/31 04:57:20;;;;;;;;;;;;;;;;;;5033429;28;20258;-75
2023/01/31 04:59:46;;;;;;;;;;;;;;;;;;5033515;28;20369;-75
2023/01/31 05:02:13;;;;;;;;;;;;;;;;;;5033485;28;19963;-75
2023/01/31 05:04:39;;;;;;;;;;;;;;;;;;5037160;28;19909;-75
2023/01/31 05:07:05;;;;;;;;;;;;;;;;;;5037506;28;19909;-75
2023/01/31 05:09:31;;;;;;;;;;;;;;;;;;5037344;28;19909;-75
2023/01/31 05:11:58;;;;;;;;;;;;;;;;;;5037310;28;20335;-74
2023/01/31 05:14:24;;;;;;;;;;;;;;;;;;5037032;28;19976;-75
2023/01/31 05:16:50;;;;;;;;;;;;;;;;;;5037483;28;20361;-75
2023/01/31 05:19:15;;;;;;;;;;;;;;;;;;5037179;28;19916;-74
2023/01/31 05:21:54;;;;;;;;;;;;;;;;;;5035824;28;19909;-75
2023/01/31 05:24:20;;;;;;;;;;;;;;;;;;5037094;28;19910;-74
2023/01/31 05:26:46;;;;;;;;;;;;;;;;;;5037254;28;19914;-75
2023/01/31 05:29:12;;;;;;;;;;;;;;;;;;5036955;28;20324;-75
2023/01/31 05:31:38;;;;;;;;;;;;;;;;;;5035647;28;19909;-74
2023/01/31 05:34:04;;;;;;;;;;;;;;;;;;5036888;28;19932;-75
2023/01/31 05:36:30;;;;;;;;;;;;;;;;;;5036980;28;19947;-74
2023/01/31 05:38:56;;;;;;;;;;;;;;;;;;5036759;28;19913;-74
2023/01/31 05:41:22;;;;;;;;;;;;;;;;;;5036775;28;19940;-75
2023/01/31 05:43:48;;;;;;;;;;;;;;;;;;5036685;28;19909;-75
2023/01/31 05:46:14;;;;;;;;;;;;;;;;;;5036630;28;20324;-76
2023/01/31 05:48:39;;;;;;;;;;;;;;;;;;5035273;28;19935;-74
2023/01/31 05:51:05;;;;;;;;;;;;;;;;;;5036752;28;19996;-75
2023/01/31 05:53:31;;;;;;;;;;;;;;;;;;5035217;28;19909;-74
2023/01/31 05:55:57;;;;;;;;;;;;;;;;;;5036507;28;19909;-74
2023/01/31 05:58:23;;;;;;;;;;;;;;;;;;5036384;28;19924;-74
2023/01/31 06:00:49;;;;;;;;;;;;;;;;;;5036363;28;19909;-74
2023/01/31 06:03:16;;;;;;;;;;;;;;;;;;5036482;28;19909;-74
2023/01/31 06:05:42;;;;;;;;;;;;;;;;;;5036590;28;19909;-75
2023/01/31 06:08:07;;;;;;;;;;;;;;;;;;5036445;28;20012;-74
2023/01/31 06:10:33;;;;;;;;;;;;;;;;;;5036144;28;19920;-75
2023/01/31 06:12:59;;;;;;;;;;;;;;;;;;5036096;28;19917;-74
2023/01/31 06:15:25;;;;;;;;;;;;;;;;;;5035265;28;19921;-74
2023/01/31 06:17:51;;;;;;;;;;;;;;;;;;5036065;28;20007;-75
2023/01/31 06:20:17;;;;;;;;;;;;;;;;;;5036134;28;19956;-75
2023/01/31 06:22:43;;;;;;;;;;;;;;;;;;5035977;28;19913;-74
2023/01/31 06:25:09;;;;;;;;;;;;;;;;;;5036452;28;20300;-74
2023/01/31 06:27:35;;;;;;;;;;;;;;;;;;5034669;28;19909;-75
2023/01/31 06:30:01;;;;;;;;;;;;;;;;;;5035890;28;19976;-74
2023/01/31 06:32:27;;;;;;;;;;;;;;;;;;5035859;28;19909;-74
2023/01/31 06:34:53;;;;;;;;;;;;;;;;;;5034515;28;19909;-74
2023/01/31 06:37:18;;;;;;;;;;;;;;;;;;5035688;28;20285;-75
2023/01/31 06:39:44;;;;;;;;;;;;;;;;;;5035728;28;20016;-75
2023/01/31 06:42:10;;;;;;;;;;;;;;;;;;5035723;28;20349;-74
2023/01/31 06:44:37;;;;;;;;;;;;;;;;;;5035398;28;20423;-74
2023/01/31 06:47:03;;;;;;;;;;;;;;;;;;5035555;28;20436;-74
2023/01/31 06:49:29;;;;;;;;;;;;;;;;;;5035368;28;19909;-74
2023/01/31 06:51:55;;;;;;;;;;;;;;;;;;5035840;28;19915;-75
2023/01/31 06:54:21;;;;;;;;;;;;;;;;;;5034041;28;19913;-75
2023/01/31 06:56:48;;;;;;;;;;;;;;;;;;5035507;28;20396;-76
2023/01/31 06:59:14;;;;;;;;;;;;;;;;;;5035485;28;19910;-75
2023/01/31 07:01:40;;;;;;;;;;;;;;;;;;5035253;28;20024;-75
2023/01/31 07:04:06;;;;;;;;;;;;;;;;;;5035332;28;20381;-75
2023/01/31 07:06:32;;;;;;;;;;;;;;;;;;5033793;28;19909;-75
2023/01/31 07:08:58;;;;;;;;;;;;;;;;;;5035109;28;20003;-75
2023/01/31 07:11:24;;;;;;;;;;;;;;;;;;5035189;28;19909;-76
2023/01/31 07:13:51;;;;;;;;;;;;;;;;;;5034823;28;19943;-75
2023/01/31 07:16:18;;;;;;;;;;;;;;;;;;5033475;28;20270;-75
2023/01/31 07:18:44;;;;;;;;;;;;;;;;;;5035382;28;19917;-74
2023/01/31 07:21:10;;;;;;;;;;;;;;;;;;5034902;28;20009;-75
2023/01/31 07:23:36;;;;;;;;;;;;;;;;;;5034871;28;19944;-74
2023/01/31 07:26:02;;;;;;;;;;;;;;;;;;5034105;28;19959;-75
2023/01/31 07:28:28;;;;;;;;;;;;;;;;;;5035116;28;20278;-76
2023/01/31 07:30:54;;;;;;;;;;;;;;;;;;5034674;28;19921;-75
2023/01/31 07:33:20;;;;;;;;;;;;;;;;;;5034623;28;19948;-74
2023/01/31 07:35:46;;;;;;;;;;;;;;;;;;5034580;28;19913;-75
2023/01/31 07:38:12;;;;;;;;;;;;;;;;;;5034496;28;19955;-75
2023/01/31 07:40:39;;;;;;;;;;;;;;;;;;5034479;28;19909;-74
2023/01/31 07:43:04;;;;;;;;;;;;;;;;;;5034344;28;20361;-75
2023/01/31 07:45:30;;;;;;;;;;;;;;;;;;5033675;28;19916;-75
2023/01/31 07:47:56;;;;;;;;;;;;;;;;;;5034401;28;20282;-75
2023/01/31 07:50:22;;;;;;;;;;;;;;;;;;5034541;28;20003;-75
2023/01/31 07:52:49;;;;;;;;;;;;;;;;;;5034243;28;20365;-75
2023/01/31 07:55:15;;;;;;;;;;;;;;;;;;5034227;28;19909;-76
2023/01/31 07:57:41;;;;;;;;;;;;;;;;;;5034115;28;19917;-75
2023/01/31 08:03:31;;;;;;;;;;;;;;;;;;5034104;28;19956;-76
2023/01/31 08:05:38;;;;;;;;;;;;;;;;;;5033812;28;19955;-75
2023/01/31 08:08:09;;;;;;;;;;;;;;;;;;5034136;28;19917;-75
2023/01/31 08:10:35;;;;;;;;;;;;;;;;;;5034024;28;19909;-75
2023/01/31 08:13:01;;;;;;;;;;;;;;;;;;5033995;28;20437;-75
2023/01/31 08:15:27;;;;;;;;;;;;;;;;;;5033510;28;20412;-74
2023/01/31 08:17:53;;;;;;;;;;;;;;;;;;5034013;28;19921;-75
2023/01/31 08:20:19;;;;;;;;;;;;;;;;;;5032678;28;19936;-74
2023/01/31 08:22:45;;;;;;;;;;;;;;;;;;5033790;28;19910;-75
2023/01/31 08:25:11;;;;;;;;;;;;;;;;;;5033852;28;19955;-75
2023/01/31 08:27:37;;;;;;;;;;;;;;;;;;5033789;28;19909;-74
2023/01/31 08:30:03;;;;;;;;;;;;;;;;;;5033775;28;19916;-75
2023/01/31 08:32:29;;;;;;;;;;;;;;;;;;5034315;28;19959;-74
2023/01/31 08:34:55;;;;;;;;;;;;;;;;;;5033586;28;19909;-75
2023/01/31 08:37:21;;;;;;;;;;;;;;;;;;5032103;28;20395;-76
2023/01/31 08:39:47;;;;;;;;;;;;;;;;;;5033645;28;19952;-75
2023/01/31 08:42:13;;;;;;;;;;;;;;;;;;5034161;28;19913;-75
2023/01/31 08:44:39;;;;;;;;;;;;;;;;;;5033572;28;19910;-76
2023/01/31 08:47:05;;;;;;;;;;;;;;;;;;5033721;28;19909;-74
2023/01/31 08:49:35;;;;;;;;;;;;;;;;;;5032564;28;19957;-74
2023/01/31 08:52:01;;;;;;;;;;;;;;;;;;5033544;28;19909;-76
2023/01/31 08:54:27;;;;;;;;;;;;;;;;;;5033572;28;19995;-75
2023/01/31 08:56:53;;;;;;;;;;;;;;;;;;5033309;28;20417;-75
2023/01/31 08:59:18;;;;;;;;;;;;;;;;;;5033719;28;19959;-76
2023/01/31 09:01:45;;;;;;;;;;;;;;;;;;5033451;28;19916;-76
2023/01/31 09:04:11;;;;;;;;;;;;;;;;;;5033616;28;19924;-75
2023/01/31 09:06:37;;;;;;;;;;;;;;;;;;5033389;28;19913;-75
2023/01/31 09:09:03;;;;;;;;;;;;;;;;;;5032085;28;19909;-76
2023/01/31 09:11:29;;;;;;;;;;;;;;;;;;5033416;28;19909;-73
2023/01/31 09:13:55;;;;;;;;;;;;;;;;;;5033446;28;19921;-76
2023/01/31 09:16:22;;;;;;;;;;;;;;;;;;5033615;28;20004;-75
2023/01/31 09:18:47;;;;;;;;;;;;;;;;;;5033193;28;19917;-75
2023/01/31 09:21:13;;;;;;;;;;;;;;;;;;5033210;28;19914;-76
2023/01/31 09:23:39;;;;;;;;;;;;;;;;;;5033720;28;19909;-76
2023/01/31 09:26:05;;;;;;;;;;;;;;;;;;5033150;28;19909;-75
2023/01/31 09:28:31;;;;;;;;;;;;;;;;;;5033331;28;19909;-75
2023/01/31 09:30:57;;;;;;;;;;;;;;;;;;5033208;28;20027;-75
2023/01/31 09:33:23;;;;;;;;;;;;;;;;;;5033172;28;19909;-76
2023/01/31 09:35:49;;;;;;;;;;;;;;;;;;5033115;28;19915;-75
2023/01/31 09:38:15;;;;;;;;;;;;;;;;;;5033053;28;19913;-77
2023/01/31 09:40:41;;;;;;;;;;;;;;;;;;5033248;28;20003;-77
2023/01/31 09:43:07;;;;;;;;;;;;;;;;;;5031852;28;20006;-73
2023/01/31 09:45:33;;;;;;;;;;;;;;;;;;5033088;28;19975;-74
2023/01/31 09:47:59;;;;;;;;;;;;;;;;;;5033460;28;20258;-74
2023/01/31 09:50:24;;;;;;;;;;;;;;;;;;5035991;28;20009;-74
2023/01/31 09:52:50;;;;;;;;;;;;;;;;;;5036771;28;19909;-75
2023/01/31 09:55:16;;;;;;;;;;;;;;;;;;5036532;28;19913;-77
2023/01/31 09:57:42;;;;;;;;;;;;;;;;;;5036357;28;20011;-73
2023/01/31 10:00:08;;;;;;;;;;;;;;;;;;5035139;28;19909;-74
2023/01/31 10:02:34;;;;;;;;;;;;;;;;;;5036613;28;19913;-76
2023/01/31 10:05:00;;;;;;;;;;;;;;;;;;5036840;28;19959;-76
2023/01/31 10:07:26;;;;;;;;;;;;;;;;;;5036354;28;19909;-77
2023/01/31 10:09:52;;;;;;;;;;;;;;;;;;5036651;28;20440;-77
2023/01/31 10:12:18;;;;;;;;;;;;;;;;;;5036183;28;20424;-75
2023/01/31 10:14:46;;;;;;;;;;;;;;;;;;5036128;28;19925;-76
2023/01/31 10:17:12;;;;;;;;;;;;;;;;;;5036073;28;19913;-73
2023/01/31 10:19:38;;;;;;;;;;;;;;;;;;5036367;28;19909;-76
2023/01/31 10:22:04;;;;;;;;;;;;;;;;;;5036039;28;20266;-76
2023/01/31 10:24:30;;;;;;;;;;;;;;;;;;5036000;28;20416;-76
2023/01/31 10:26:56;;;;;;;;;;;;;;;;;;5034655;28;19956;-75
2023/01/31 10:29:26;;;;;;;;;;;;;;;;;;5035894;28;19951;-76
2023/01/31 10:31:51;;;;;;;;;;;;;;;;;;5034550;28;20258;-77
2023/01/31 10:34:17;;;;;;;;;;;;;;;;;;5035793;28;19954;-75
2023/01/31 10:36:43;;;;;;;;;;;;;;;;;;5035719;28;20003;-73
2023/01/31 10:39:09;;;;;;;;;;;;;;;;;;5035689;28;19914;-75
2023/01/31 10:41:35;;;;;;;;;;;;;;;;;;5036045;28;19916;-76
2023/01/31 10:44:01;;;;;;;;;;;;;;;;;;5035631;28;19944;-73
2023/01/31 10:46:27;;;;;;;;;;;;;;;;;;5035594;28;19909;-76
2023/01/31 10:48:53;;;;;;;;;;;;;;;;;;5035560;28;19909;-76
2023/01/31 10:51:19;;;;;;;;;;;;;;;;;;5035413;28;19917;-76
2023/01/31 10:53:45;;;;;;;;;;;;;;;;;;5035436;28;19909;-77
2023/01/31 10:56:11;;;;;;;;;;;;;;;;;;5035214;28;19909;-74
2023/01/31 10:58:37;;;;;;;;;;;;;;;;;;5034924;28;19913;-74
2023/01/31 11:01:04;;;;;;;;;;;;;;;;;;5035203;28;19921;-74
2023/01/31 11:03:30;;;;;;;;;;;;;;;;;;5033950;28;19956;-74
2023/01/31 11:05:56;;;;;;;;;;;;;;;;;;5033866;28;19909;-73
2023/01/31 11:08:22;;;;;;;;;;;;;;;;;;5035331;28;19909;-74
2023/01/31 11:10:48;;;;;;;;;;;;;;;;;;5035340;28;20296;-74
2023/01/31 11:13:15;;;;;;;;;;;;;;;;;;5035094;28;19956;-73
2023/01/31 11:15:41;;;;;;;;;;;;;;;;;;5034790;28;19921;-73
2023/01/31 11:18:07;;;;;;;;;;;;;;;;;;5034938;28;19913;-75
2023/01/31 11:20:33;;;;;;;;;;;;;;;;;;5035217;28;19916;-75
2023/01/31 11:22:59;;;;;;;;;;;;;;;;;;5034860;28;19951;-73
2023/01/31 11:25:25;;;;;;;;;;;;;;;;;;5034916;28;20370;-76
2023/01/31 11:27:51;;;;;;;;;;;;;;;;;;5034772;28;19916;-76
2023/01/31 11:30:17;;;;;;;;;;;;;;;;;;5034706;28;19935;-76
2023/01/31 11:32:43;;;;;;;;;;;;;;;;;;5034707;28;19995;-74
2023/01/31 11:35:09;;;;;;;;;;;;;;;;;;5034774;28;20373;-76
2023/01/31 11:37:35;;;;;;;;;;;;;;;;;;5034561;28;19920;-74
2023/01/31 11:40:01;;;;;;;;;;;;;;;;;;5033191;28;20004;-74
2023/01/31 11:42:27;;;;;;;;;;;;;;;;;;5034679;28;19943;-74
2023/01/31 11:44:52;;;;;;;;;;;;;;;;;;5034456;28;19909;-74
2023/01/31 11:47:18;;;;;;;;;;;;;;;;;;5034722;28;20371;-77
2023/01/31 11:49:44;;;;;;;;;;;;;;;;;;5033227;28;20369;-75
2023/01/31 11:52:10;;;;;;;;;;;;;;;;;;5034337;28;19916;-74
2023/01/31 11:54:36;;;;;;;;;;;;;;;;;;5034748;28;19909;-74
2023/01/31 11:57:02;;;;;;;;;;;;;;;;;;5034186;28;19909;-74
2023/01/31 11:59:28;;;;;;;;;;;;;;;;;;5034282;28;19932;-74
2023/01/31 12:01:54;;;;;;;;;;;;;;;;;;5034209;28;19913;-74
2023/01/31 12:04:22;;;;;;;;;;;;;;;;;;5034605;28;20361;-74
2023/01/31 12:06:47;;;;;;;;;;;;;;;;;;5032848;28;19915;-73
2023/01/31 12:09:13;;;;;;;;;;;;;;;;;;5034184;28;20000;-73
2023/01/31 12:11:39;;;;;;;;;;;;;;;;;;5033549;28;20352;-74
2023/01/31 12:14:05;;;;;;;;;;;;;;;;;;5032538;28;20372;-74
2023/01/31 12:16:31;;;;;;;;;;;;;;;;;;5034229;28;19909;-74
2023/01/31 12:18:57;;;;;;;;;;;;;;;;;;5034035;28;19913;-73
2023/01/31 12:21:23;;;;;;;;;;;;;;;;;;5033917;28;19909;-74
2023/01/31 12:23:49;;;;;;;;;;;;;;;;;;5033903;28;19909;-73
2023/01/31 12:26:15;;;;;;;;;;;;;;;;;;5033877;28;19948;-74
2023/01/31 12:28:41;;;;;;;;;;;;;;;;;;5033804;28;19909;-74
2023/01/31 12:31:07;;;;;;;;;;;;;;;;;;5033757;28;19932;-74
2023/01/31 12:33:33;;;;;;;;;;;;;;;;;;5033785;28;20285;-73
2023/01/31 12:35:59;;;;;;;;;;;;;;;;;;5034040;28;19916;-74
2023/01/31 12:38:25;;;;;;;;;;;;;;;;;;5033668;28;19920;-74
2023/01/31 12:40:50;;;;;;;;;;;;;;;;;;5033672;28;19995;-76
2023/01/31 12:43:16;;;;;;;;;;;;;;;;;;5033650;28;19960;-76
2023/01/31 12:45:42;;;;;;;;;;;;;;;;;;5033756;28;19909;-75
2023/01/31 12:48:09;;;;;;;;;;;;;;;;;;5033579;28;19909;-76
2023/01/31 12:50:35;;;;;;;;;;;;;;;;;;5032364;28;20336;-75
2023/01/31 12:53:01;;;;;;;;;;;;;;;;;;5034055;28;19909;-75
2023/01/31 12:55:26;;;;;;;;;;;;;;;;;;5033859;28;19913;-75
2023/01/31 12:57:52;;;;;;;;;;;;;;;;;;5033472;28;19966;-75
2023/01/31 13:00:18;;;;;;;;;;;;;;;;;;5033607;28;19955;-76
2023/01/31 13:02:44;;;;;;;;;;;;;;;;;;5033613;28;19913;-75
2023/01/31 13:05:10;;;;;;;;;;;;;;;;;;5033426;28;19944;-76
2023/01/31 13:07:36;;;;;;;;;;;;;;;;;;5032078;28;19909;-75
2023/01/31 13:10:02;;;;;;;;;;;;;;;;;;5033427;28;19916;-75
2023/01/31 13:12:28;;;;;;;;;;;;;;;;;;5033388;28;19909;-75
2023/01/31 13:14:54;;;;;;;;;;;;;;;;;;5033137;28;19925;-76
2023/01/31 13:17:20;;;;;;;;;;;;;;;;;;5033237;28;19924;-75
2023/01/31 13:19:46;;;;;;;;;;;;;;;;;;5033487;28;20262;-76
2023/01/31 13:22:12;;;;;;;;;;;;;;;;;;5033298;28;20413;-76
2023/01/31 13:24:38;;;;;;;;;;;;;;;;;;5035293;28;19909;-76
2023/01/31 13:27:03;;;;;;;;;;;;;;;;;;5037264;28;19913;-76
2023/01/31 13:29:29;;;;;;;;;;;;;;;;;;5037060;28;20008;-75
2023/01/31 13:31:55;;;;;;;;;;;;;;;;;;5037001;28;19909;-75
2023/01/31 13:34:21;;;;;;;;;;;;;;;;;;5036934;28;20266;-74
2023/01/31 13:36:47;;;;;;;;;;;;;;;;;;5036933;28;19909;-76
2023/01/31 13:39:13;;;;;;;;;;;;;;;;;;5035503;28;20386;-76
2023/01/31 13:41:39;;;;;;;;;;;;;;;;;;5037186;28;19999;-75
2023/01/31 13:44:06;;;;;;;;;;;;;;;;;;5036780;28;19916;-76
2023/01/31 13:46:32;;;;;;;;;;;;;;;;;;5036881;28;20367;-76
2023/01/31 13:48:58;;;;;;;;;;;;;;;;;;5037166;28;20031;-75
2023/01/31 13:51:24;;;;;;;;;;;;;;;;;;5036671;28;20373;-75
2023/01/31 13:53:50;;;;;;;;;;;;;;;;;;5035312;28;20278;-75
2023/01/31 13:56:16;;;;;;;;;;;;;;;;;;5036643;28;20004;-76
2023/01/31 13:58:42;;;;;;;;;;;;;;;;;;5036469;28;19920;-76
2023/01/31 14:01:08;;;;;;;;;;;;;;;;;;5036510;28;20004;-76
2023/01/31 14:03:34;;;;;;;;;;;;;;;;;;5036598;28;19936;-75
2023/01/31 14:06:00;;;;;;;;;;;;;;;;;;5035180;28;20266;-75
2023/01/31 14:08:26;;;;;;;;;;;;;;;;;;5035084;28;19945;-76
2023/01/31 14:10:52;;;;;;;;;;;;;;;;;;5036309;28;19909;-76
2023/01/31 14:13:18;;;;;;;;;;;;;;;;;;5036340;28;20274;-75
2023/01/31 14:15:44;;;;;;;;;;;;;;;;;;5036457;28;20384;-77
2023/01/31 14:18:10;;;;;;;;;;;;;;;;;;5036195;28;19913;-77
2023/01/31 14:20:36;;;;;;;;;;;;;;;;;;5034796;28;19915;-77
2023/01/31 14:23:02;;;;;;;;;;;;;;;;;;5036065;28;20008;-75
2023/01/31 14:25:28;;;;;;;;;;;;;;;;;;5036018;28;19948;-75
2023/01/31 14:27:54;;;;;;;;;;;;;;;;;;5036012;28;19917;-76
2023/01/31 14:30:19;;;;;;;;;;;;;;;;;;5035861;28;19909;-75
2023/01/31 14:32:45;;;;;;;;;;;;;;;;;;5035814;28;19916;-76
2023/01/31 14:35:11;;;;;;;;;;;;;;;;;;5034151;28;19909;-75
2023/01/31 14:37:37;;;;;;;;;;;;;;;;;;5035742;28;20395;-77
2023/01/31 14:40:03;;;;;;;;;;;;;;;;;;5035756;28;19916;-76
2023/01/31 14:42:29;;;;;;;;;;;;;;;;;;5035813;28;19949;-76
2023/01/31 14:44:55;;;;;;;;;;;;;;;;;;5035878;28;19916;-75
2023/01/31 14:47:21;;;;;;;;;;;;;;;;;;5035757;28;19916;-75
2023/01/31 14:49:47;;;;;;;;;;;;;;;;;;5035540;28;19909;-76
2023/01/31 14:52:13;;;;;;;;;;;;;;;;;;5034245;28;19909;-75
2023/01/31 14:54:40;;;;;;;;;;;;;;;;;;5035431;28;20365;-75
2023/01/31 14:57:06;;;;;;;;;;;;;;;;;;5035307;28;19992;-75
2023/01/31 14:59:32;;;;;;;;;;;;;;;;;;5035355;28;19909;-75
2023/01/31 15:01:58;;;;;;;;;;;;;;;;;;5035361;28;19910;-76
2023/01/31 15:04:24;;;;;;;;;;;;;;;;;;5035289;28;19982;-76
2023/01/31 15:06:50;;;;;;;;;;;;;;;;;;5035250;28;19909;-76
2023/01/31 15:09:16;;;;;;;;;;;;;;;;;;5035743;28;19936;-75
2023/01/31 15:11:42;;;;;;;;;;;;;;;;;;5035188;28;19967;-75
2023/01/31 15:14:08;;;;;;;;;;;;;;;;;;5034900;28;19929;-76
2023/01/31 15:16:36;;;;;;;;;;;;;;;;;;5034244;28;21325;-74
2023/01/31 15:19:02;;;;;;;;;;;;;;;;;;5035280;28;19913;-75
2023/01/31 15:21:28;;;;;;;;;;;;;;;;;;5035232;28;20250;-75
2023/01/31 15:23:54;;;;;;;;;;;;;;;;;;5034970;28;19913;-76
2023/01/31 15:26:20;;;;;;;;;;;;;;;;;;5034836;28;19916;-75
2023/01/31 15:28:46;;;;;;;;;;;;;;;;;;5034719;28;19909;-75
2023/01/31 15:31:12;;;;;;;;;;;;;;;;;;5034775;28;19909;-75
2023/01/31 15:33:38;;;;;;;;;;;;;;;;;;5034699;28;20358;-74
2023/01/31 15:36:04;;;;;;;;;;;;;;;;;;5034716;28;20289;-76
2023/01/31 15:38:30;;;;;;;;;;;;;;;;;;5033296;28;20372;-75
2023/01/31 15:40:56;;;;;;;;;;;;;;;;;;5035133;28;19909;-75
2023/01/31 15:43:22;;;;;;;;;;;;;;;;;;5034539;28;20003;-74
2023/01/31 15:45:51;;;;;;;;;;;;;;;;;;5034326;28;20361;-74
2023/01/31 15:48:17;;;;;;;;;;;;;;;;;;5033879;28;19909;-75
2023/01/31 15:50:43;;;;;;;;;;;;;;;;;;5034416;28;19916;-74
2023/01/31 15:53:08;;;;;;;;;;;;;;;;;;5034375;28;20003;-75
2023/01/31 15:55:34;;;;;;;;;;;;;;;;;;5034516;28;20423;-75
2023/01/31 15:58:01;;;;;;;;;;;;;;;;;;5034179;28;19913;-75
2023/01/31 16:00:26;;;;;;;;;;;;;;;;;;5034319;28;19959;-75
2023/01/31 16:02:59;;;;;;;;;;;;;;;;;;5034192;28;19909;-75
2023/01/31 16:05:25;;;;;;;;;;;;;;;;;;5034649;28;19916;-75
2023/01/31 16:07:51;;;;;;;;;;;;;;;;;;5034136;28;19909;-75
2023/01/31 16:10:17;;;;;;;;;;;;;;;;;;5034317;28;20337;-75
2023/01/31 16:12:43;;;;;;;;;;;;;;;;;;5033983;28;19952;-75
2023/01/31 16:15:09;;;;;;;;;;;;;;;;;;5033735;28;19921;-76
2023/01/31 16:17:35;;;;;;;;;;;;;;;;;;5033912;28;19963;-75
2023/01/31 16:20:00;;;;;;;;;;;;;;;;;;5032666;28;19909;-76
2023/01/31 16:22:26;;;;;;;;;;;;;;;;;;5034437;28;20361;-75
2023/01/31 16:24:52;;;;;;;;;;;;;;;;;;5033817;28;19909;-75
2023/01/31 16:27:19;;;;;;;;;;;;;;;;;;5032537;28;19909;-75
2023/01/31 16:29:44;;;;;;;;;;;;;;;;;;5032539;28;19913;-75
2023/01/31 16:32:10;;;;;;;;;;;;;;;;;;5033959;28;19959;-75
2023/01/31 16:34:36;;;;;;;;;;;;;;;;;;5033780;28;20324;-75
2023/01/31 16:37:02;;;;;;;;;;;;;;;;;;5033838;28;20464;-75
2023/01/31 16:39:28;;;;;;;;;;;;;;;;;;5032322;28;19920;-75
2023/01/31 16:41:56;;;;;;;;;;;;;;;;;;5032418;28;19913;-75